createdAt,value
2022-09-03T00:10:03.302Z,99.90
2022-09-03T00:12:53.200Z,99.90
2022-09-03T00:29:41.199Z,99.90
2022-09-03T00:32:54.232Z,99.90
2022-09-03T00:35:44.395Z,99.90
2022-09-03T00:44:24.239Z,99.90
2022-09-03T00:53:25.204Z,99.90
2022-09-03T00:56:31.229Z,99.90
2022-09-03T00:59:40.209Z,99.90
2022-09-03T01:02:33.596Z,99.90
2022-09-03T01:05:25.268Z,99.90
2022-09-03T01:08:42.254Z,99.90
2022-09-03T01:11:28.067Z,99.90
2022-09-03T01:15:01.277Z,99.90
2022-09-03T01:17:54.008Z,99.90
2022-09-03T01:21:12.257Z,99.90
2022-09-03T01:27:21.266Z,99.90
2022-09-03T01:30:09.190Z,99.90
2022-09-03T01:42:28.258Z,99.90
2022-09-03T01:45:13.354Z,99.90
2022-09-03T01:48:17.247Z,99.90
2022-09-03T01:51:00.421Z,99.90
2022-09-03T02:07:54.260Z,99.90
2022-09-03T02:11:09.257Z,99.90
2022-09-03T02:22:02.360Z,99.90
2022-09-03T02:24:49.254Z,99.90
2022-09-03T02:30:25.269Z,99.90
2022-09-03T02:33:12.270Z,99.90
2022-09-03T02:44:19.267Z,99.90
2022-09-03T02:47:00.410Z,99.90
2022-09-03T02:49:47.288Z,99.90
2022-09-03T02:55:09.264Z,99.90
2022-09-03T03:00:30.293Z,99.90
2022-09-03T03:06:08.312Z,99.90
2022-09-03T03:08:56.302Z,99.90
2022-09-03T03:14:17.290Z,99.90
2022-09-03T03:19:38.291Z,99.90
2022-09-03T03:24:59.297Z,99.90
2022-09-03T03:30:20.287Z,99.90
2022-09-03T03:35:55.281Z,99.90
2022-09-03T03:38:43.310Z,99.90
2022-09-03T03:41:26.348Z,99.90
2022-09-03T03:44:14.350Z,99.90
2022-09-03T03:46:48.384Z,99.90
2022-09-03T03:49:35.302Z,99.90
2022-09-03T03:54:56.323Z,99.90
2022-09-03T04:11:12.178Z,99.90
2022-09-03T05:14:05.319Z,99.90
2022-09-03T05:16:39.087Z,99.90
2022-09-03T05:19:33.334Z,99.90
2022-09-03T05:22:30.335Z,99.90
2022-09-03T05:25:17.338Z,99.90
2022-09-03T05:30:38.359Z,99.90
2022-09-03T05:36:00.356Z,98.90
2022-09-03T05:41:23.372Z,95.60
2022-09-03T05:47:07.357Z,93.40
2022-09-03T05:49:54.373Z,90.30
2022-09-03T05:55:15.367Z,93.50
2022-09-03T06:00:36.394Z,97.80
2022-09-03T06:05:58.341Z,99.90
2022-09-03T06:11:19.381Z,99.90
2022-09-03T06:16:43.536Z,99.90
2022-09-03T06:19:25.366Z,99.90
2022-09-03T06:22:19.338Z,99.90
2022-09-03T06:25:06.362Z,99.90
2022-09-03T06:30:34.363Z,99.90
2022-09-03T06:35:55.384Z,99.90
2022-09-03T06:41:21.378Z,99.90
2022-09-03T06:46:45.411Z,99.90
2022-09-03T06:52:07.358Z,99.90
2022-09-03T06:57:28.379Z,99.90
2022-09-03T07:03:10.382Z,99.90
2022-09-03T07:05:57.441Z,99.90
2022-09-03T07:08:39.386Z,99.90
2022-09-03T07:11:35.366Z,99.10
2022-09-03T07:14:27.393Z,99.20
2022-09-03T07:20:02.416Z,91.70
2022-09-03T07:22:49.396Z,83.00
2022-09-03T07:28:24.474Z,85.30
2022-09-03T07:31:19.440Z,81.00
2022-09-03T07:34:01.397Z,80.80
2022-09-03T07:36:53.395Z,75.90
2022-09-03T07:42:15.393Z,73.00
2022-09-03T07:47:37.408Z,74.80
2022-09-03T07:50:12.459Z,76.60
2022-09-03T07:53:05.408Z,74.90
2022-09-03T07:58:45.417Z,78.10
2022-09-03T08:01:41.710Z,78.60
2022-09-03T08:07:04.409Z,75.10
2022-09-03T08:12:25.441Z,71.20
2022-09-03T08:17:50.442Z,67.80
2022-09-03T08:23:11.920Z,66.40
2022-09-03T08:28:34.362Z,62.90
2022-09-03T08:31:24.446Z,60.90
2022-09-03T08:33:59.708Z,62.30
2022-09-03T08:36:53.434Z,62.50
2022-09-03T08:39:27.179Z,64.30
2022-09-03T08:44:56.135Z,66.70
2022-09-03T08:47:57.421Z,64.50
2022-09-03T08:50:39.327Z,66.00
2022-09-03T08:53:53.437Z,65.30
2022-09-03T08:56:38.432Z,64.90
2022-09-03T09:02:42.560Z,68.90
2022-09-03T09:05:37.516Z,67.40
2022-09-03T09:08:39.452Z,66.10
2022-09-03T09:11:36.446Z,69.20
2022-09-03T09:14:40.890Z,69.30
2022-09-03T09:17:45.481Z,68.80
2022-09-03T09:20:55.338Z,69.10
2022-09-03T09:23:49.459Z,70.80
2022-09-03T09:26:23.023Z,69.30
2022-09-03T09:29:19.459Z,69.00
2022-09-03T09:31:53.559Z,70.10
2022-09-03T09:37:36.460Z,71.30
2022-09-03T09:40:53.467Z,72.70
2022-09-03T09:43:40.459Z,76.00
2022-09-03T09:46:28.565Z,74.20
2022-09-03T09:49:43.461Z,74.00
2022-09-03T09:52:22.212Z,74.10
2022-09-03T09:55:24.493Z,69.50
2022-09-03T09:58:14.512Z,72.70
2022-09-03T10:01:07.554Z,74.70
2022-09-03T10:04:03.474Z,73.30
2022-09-03T10:06:53.882Z,74.10
2022-09-03T10:09:40.485Z,74.50
2022-09-03T10:12:35.704Z,73.80
2022-09-03T10:15:47.570Z,75.10
2022-09-03T10:18:28.697Z,76.80
2022-09-03T10:21:38.496Z,76.70
2022-09-03T10:24:23.602Z,78.70
2022-09-03T10:27:10.499Z,75.50
2022-09-03T10:33:15.468Z,78.40
2022-09-03T10:36:30.488Z,79.90
2022-09-03T10:39:33.583Z,83.30
2022-09-03T10:42:51.495Z,81.60
2022-09-03T10:45:50.528Z,81.60
2022-09-03T10:48:42.638Z,82.70
2022-09-03T10:51:49.776Z,85.00
2022-09-03T10:54:34.857Z,81.90
2022-09-03T10:57:44.510Z,82.30
2022-09-03T11:00:41.510Z,81.40
2022-09-03T11:03:51.518Z,80.10
2022-09-03T11:06:30.617Z,82.80
2022-09-03T11:09:28.500Z,80.50
2022-09-03T11:12:10.567Z,79.40
2022-09-03T11:15:06.510Z,79.80
2022-09-03T11:18:03.499Z,78.80
2022-09-03T11:20:51.502Z,79.60
2022-09-03T11:23:33.506Z,77.60
2022-09-03T11:26:24.514Z,78.70
2022-09-03T11:29:18.377Z,82.30
2022-09-03T11:32:36.519Z,80.40
2022-09-03T11:35:34.511Z,81.00
2022-09-03T11:38:22.488Z,81.00
2022-09-03T11:41:41.509Z,84.00
2022-09-03T11:44:28.506Z,79.30
2022-09-03T11:47:05.585Z,77.30
2022-09-03T11:50:00.502Z,79.30
2022-09-03T11:52:40.596Z,82.30
2022-09-03T11:55:43.574Z,83.80
2022-09-03T11:58:20.730Z,83.10
2022-09-03T12:01:26.521Z,84.90
2022-09-03T12:04:19.566Z,83.90
2022-09-03T12:07:04.717Z,81.90
2022-09-03T12:10:09.528Z,80.20
2022-09-03T12:13:08.955Z,81.80
2022-09-03T12:16:41.519Z,83.90
2022-09-03T12:19:41.356Z,83.70
2022-09-03T12:22:30.546Z,83.30
2022-09-03T12:25:15.132Z,82.70
2022-09-03T12:30:37.715Z,85.30
2022-09-03T12:36:07.547Z,81.30
2022-09-03T12:42:01.545Z,81.70
2022-09-03T12:47:37.341Z,86.10
2022-09-03T12:50:21.642Z,83.30
2022-09-03T12:53:08.547Z,79.20
2022-09-03T12:55:54.105Z,77.60
2022-09-03T12:58:46.570Z,75.50
2022-09-03T13:01:27.830Z,75.10
2022-09-03T13:04:23.566Z,75.60
2022-09-03T13:07:09.618Z,74.10
2022-09-03T13:09:57.559Z,76.90
2022-09-03T13:12:40.630Z,76.80
2022-09-03T13:15:32.535Z,75.40
2022-09-03T13:21:25.555Z,76.10
2022-09-03T13:24:33.578Z,75.90
2022-09-03T13:27:44.336Z,75.10
2022-09-03T13:30:47.608Z,73.90
2022-09-03T13:33:37.924Z,70.50
2022-09-03T13:36:35.579Z,70.50
2022-09-03T13:39:30.624Z,72.20
2022-09-03T13:42:30.590Z,71.60
2022-09-03T13:45:10.265Z,74.00
2022-09-03T13:48:48.564Z,77.50
2022-09-03T13:51:55.565Z,78.50
2022-09-03T13:54:49.090Z,79.50
2022-09-03T13:57:45.564Z,78.20
2022-09-03T14:00:28.706Z,76.60
2022-09-03T14:03:28.635Z,78.70
2022-09-03T14:06:39.560Z,79.90
2022-09-03T14:09:46.561Z,75.90
2022-09-03T14:12:48.583Z,76.50
2022-09-03T14:15:49.030Z,75.80
2022-09-03T14:19:06.655Z,74.10
2022-09-03T14:22:10.608Z,73.80
2022-09-03T14:25:14.668Z,74.40
2022-09-03T14:28:19.601Z,76.00
2022-09-03T14:30:59.655Z,77.30
2022-09-03T14:34:05.582Z,79.70
2022-09-03T14:39:37.632Z,80.60
2022-09-03T14:42:19.662Z,78.60
2022-09-03T14:45:31.630Z,78.10
2022-09-03T14:48:35.743Z,75.80
2022-09-03T14:51:27.588Z,75.70
2022-09-03T14:54:36.970Z,76.80
2022-09-03T14:57:54.600Z,77.90
2022-09-03T15:00:39.236Z,76.70
2022-09-03T15:03:28.611Z,74.50
2022-09-03T15:06:39.583Z,72.70
2022-09-03T15:09:55.590Z,73.40
2022-09-03T15:12:49.621Z,71.80
2022-09-03T15:15:41.609Z,73.10
2022-09-03T15:19:05.588Z,73.30
2022-09-03T15:22:16.621Z,71.60
2022-09-03T15:25:19.600Z,71.50
2022-09-03T15:28:39.597Z,71.80
2022-09-03T15:31:35.793Z,72.00
2022-09-03T15:34:53.611Z,73.80
2022-09-03T15:37:58.605Z,75.50
2022-09-03T15:41:06.605Z,76.30
2022-09-03T15:43:57.620Z,76.20
2022-09-03T15:46:46.740Z,77.30
2022-09-03T15:49:51.629Z,80.10
2022-09-03T15:52:46.670Z,82.20
2022-09-03T15:55:51.592Z,82.50
2022-09-03T15:59:06.635Z,84.00
2022-09-03T16:02:18.347Z,85.10
2022-09-03T16:05:27.641Z,87.00
2022-09-03T16:08:28.688Z,87.50
2022-09-03T16:11:28.636Z,86.90
2022-09-03T16:17:35.637Z,89.20
2022-09-03T16:20:45.628Z,90.70
2022-09-03T16:26:40.639Z,92.40
2022-09-03T16:29:26.111Z,92.80
2022-09-03T16:32:23.662Z,93.30
2022-09-03T16:35:17.652Z,94.00
2022-09-03T16:38:36.639Z,95.00
2022-09-03T16:41:34.642Z,95.80
2022-09-03T16:44:49.690Z,95.90
2022-09-03T16:48:09.660Z,96.10
2022-09-03T16:51:31.678Z,96.60
2022-09-03T16:54:21.654Z,97.30
2022-09-03T16:57:21.630Z,97.10
2022-09-03T17:00:19.677Z,98.00
2022-09-03T17:03:14.651Z,98.60
2022-09-03T17:06:22.725Z,99.10
2022-09-03T17:09:19.650Z,99.60
2022-09-03T17:15:03.678Z,99.90
2022-09-03T17:17:43.790Z,99.90
2022-09-03T17:20:49.574Z,99.90
2022-09-03T17:24:12.696Z,99.90
2022-09-03T17:27:19.677Z,99.90
2022-09-03T17:30:03.679Z,99.90
2022-09-03T17:33:17.668Z,99.90
2022-09-03T17:36:20.690Z,99.90
2022-09-03T17:39:31.694Z,99.90
2022-09-03T17:42:24.666Z,99.90
2022-09-03T17:45:35.693Z,99.90
2022-09-03T17:48:47.757Z,99.90
2022-09-03T17:51:45.690Z,99.90
2022-09-03T17:54:47.658Z,99.90
2022-09-03T17:57:39.684Z,99.90
2022-09-03T18:03:08.698Z,99.90
2022-09-03T18:11:33.928Z,99.90
2022-09-03T18:14:33.684Z,99.90
2022-09-03T18:20:40.684Z,99.90
2022-09-03T18:27:11.529Z,99.90
2022-09-03T18:59:27.709Z,99.90
2022-09-03T19:02:41.455Z,99.90
2022-09-03T19:06:05.694Z,99.90
2022-09-03T19:09:21.709Z,99.90
2022-09-03T19:15:56.729Z,99.90
2022-09-03T19:19:15.206Z,99.90
2022-09-03T19:22:26.731Z,99.90
2022-09-03T19:25:45.698Z,99.90
2022-09-03T19:28:54.732Z,99.90
2022-09-03T19:32:19.732Z,99.90
2022-09-03T19:35:42.731Z,99.90
2022-09-03T19:39:21.827Z,99.90
2022-09-03T19:42:46.699Z,99.90
2022-09-03T19:45:59.792Z,99.90
2022-09-03T19:49:35.276Z,99.90
2022-09-03T19:53:15.735Z,99.90
2022-09-03T19:56:23.301Z,99.90
2022-09-03T19:59:36.709Z,99.90
2022-09-03T20:05:46.719Z,99.90
2022-09-03T20:08:42.652Z,99.90
2022-09-03T20:11:33.724Z,99.90
2022-09-03T20:17:26.748Z,99.90
2022-09-03T20:20:31.758Z,99.90
2022-09-03T20:23:19.734Z,99.90
2022-09-03T20:26:32.832Z,99.90
2022-09-03T20:29:47.745Z,99.90
2022-09-03T20:35:17.733Z,99.90
2022-09-03T20:38:19.762Z,99.90
2022-09-03T20:44:14.736Z,99.90
2022-09-03T20:53:01.993Z,99.90
2022-09-03T20:55:50.774Z,99.90
2022-09-03T21:01:34.821Z,99.90
2022-09-03T21:04:39.745Z,99.90
2022-09-03T21:07:49.758Z,99.90
2022-09-03T21:13:19.749Z,99.90
2022-09-03T21:16:26.763Z,99.90
2022-09-03T21:19:40.006Z,99.90
2022-09-03T21:22:31.786Z,99.90
2022-09-03T21:25:14.829Z,99.90
2022-09-03T21:28:01.766Z,99.90
2022-09-03T21:30:46.428Z,99.90
2022-09-03T21:33:33.778Z,99.90
2022-09-03T21:39:05.784Z,99.90
2022-09-03T21:44:54.802Z,99.90
2022-09-03T21:50:32.792Z,99.90
2022-09-03T21:53:24.454Z,99.90
2022-09-03T22:02:09.817Z,99.90
2022-09-03T22:16:59.800Z,99.90
2022-09-03T22:22:38.764Z,99.90
2022-09-03T22:28:21.533Z,99.90
2022-09-03T22:34:23.922Z,99.90
2022-09-03T22:48:39.781Z,99.90
2022-09-03T23:06:02.866Z,99.90
2022-09-03T23:11:59.880Z,99.90
2022-09-03T23:14:57.795Z,99.90
2022-09-03T23:23:42.813Z,99.90
2022-09-03T23:48:25.075Z,99.90
